sensor_id;sensor_type;location;lat;lon;timestamp;P1;durP1;ratioP1;P2;durP2;ratioP2
43327;SDS011;28923;45.412;10.852;2022-11-20T00:00:44;2.72;;;2.05;;
43327;SDS011;28923;45.412;10.852;2022-11-20T00:03:10;2.72;;;1.90;;
43327;SDS011;28923;45.412;10.852;2022-11-20T00:05:35;3.40;;;2.08;;
43327;SDS011;28923;45.412;10.852;2022-11-20T00:08:01;2.67;;;2.03;;
43327;SDS011;28923;45.412;10.852;2022-11-20T00:10:26;2.13;;;1.85;;
43327;SDS011;28923;45.412;10.852;2022-11-20T00:12:53;2.20;;;1.80;;
43327;SDS011;28923;45.412;10.852;2022-11-20T00:15:18;2.45;;;1.95;;
43327;SDS011;28923;45.412;10.852;2022-11-20T00:17:44;2.05;;;1.85;;
43327;SDS011;28923;45.412;10.852;2022-11-20T00:20:10;1.70;;;1.52;;
43327;SDS011;28923;45.412;10.852;2022-11-20T00:22:35;2.10;;;1.90;;
43327;SDS011;28923;45.412;10.852;2022-11-20T00:25:01;2.30;;;1.85;;
43327;SDS011;28923;45.412;10.852;2022-11-20T00:27:27;2.17;;;1.77;;
43327;SDS011;28923;45.412;10.852;2022-11-20T00:29:53;2.05;;;1.73;;
43327;SDS011;28923;45.412;10.852;2022-11-20T00:32:18;1.70;;;1.60;;
43327;SDS011;28923;45.412;10.852;2022-11-20T00:34:44;2.08;;;1.80;;
43327;SDS011;28923;45.412;10.852;2022-11-20T00:37:09;2.75;;;1.73;;
43327;SDS011;28923;45.412;10.852;2022-11-20T00:39:35;3.10;;;1.83;;
43327;SDS011;28923;45.412;10.852;2022-11-20T00:42:01;1.90;;;1.60;;
43327;SDS011;28923;45.412;10.852;2022-11-20T00:44:26;1.90;;;1.35;;
43327;SDS011;28923;45.412;10.852;2022-11-20T00:46:52;1.88;;;1.52;;
43327;SDS011;28923;45.412;10.852;2022-11-20T00:49:17;3.38;;;1.65;;
43327;SDS011;28923;45.412;10.852;2022-11-20T00:51:43;2.95;;;1.38;;
43327;SDS011;28923;45.412;10.852;2022-11-20T00:54:08;1.60;;;1.50;;
43327;SDS011;28923;45.412;10.852;2022-11-20T00:56:34;2.00;;;1.73;;
43327;SDS011;28923;45.412;10.852;2022-11-20T00:58:59;1.83;;;1.55;;
43327;SDS011;28923;45.412;10.852;2022-11-20T01:01:26;1.85;;;1.60;;
43327;SDS011;28923;45.412;10.852;2022-11-20T01:03:55;1.92;;;1.63;;
43327;SDS011;28923;45.412;10.852;2022-11-20T01:06:22;2.00;;;1.60;;
43327;SDS011;28923;45.412;10.852;2022-11-20T01:08:48;2.20;;;1.60;;
43327;SDS011;28923;45.412;10.852;2022-11-20T01:11:15;1.67;;;1.30;;
43327;SDS011;28923;45.412;10.852;2022-11-20T01:13:42;3.08;;;1.77;;
43327;SDS011;28923;45.412;10.852;2022-11-20T01:16:18;2.38;;;1.60;;
43327;SDS011;28923;45.412;10.852;2022-11-20T01:18:45;1.65;;;1.40;;
43327;SDS011;28923;45.412;10.852;2022-11-20T01:21:11;2.97;;;1.60;;
43327;SDS011;28923;45.412;10.852;2022-11-20T01:23:38;2.10;;;1.70;;
43327;SDS011;28923;45.412;10.852;2022-11-20T01:26:05;1.73;;;1.42;;
43327;SDS011;28923;45.412;10.852;2022-11-20T01:28:30;1.75;;;1.50;;
43327;SDS011;28923;45.412;10.852;2022-11-20T01:30:56;2.00;;;1.60;;
43327;SDS011;28923;45.412;10.852;2022-11-20T01:33:23;1.90;;;1.50;;
43327;SDS011;28923;45.412;10.852;2022-11-20T01:35:48;1.88;;;1.38;;
43327;SDS011;28923;45.412;10.852;2022-11-20T01:38:14;2.00;;;1.33;;
43327;SDS011;28923;45.412;10.852;2022-11-20T01:40:40;2.05;;;1.30;;
43327;SDS011;28923;45.412;10.852;2022-11-20T01:43:17;1.73;;;1.48;;
43327;SDS011;28923;45.412;10.852;2022-11-20T01:48:32;2.15;;;1.60;;
43327;SDS011;28923;45.412;10.852;2022-11-20T01:50:58;1.95;;;1.30;;
43327;SDS011;28923;45.412;10.852;2022-11-20T01:53:25;2.15;;;1.60;;
43327;SDS011;28923;45.412;10.852;2022-11-20T01:55:53;1.40;;;1.30;;
43327;SDS011;28923;45.412;10.852;2022-11-20T01:58:21;1.55;;;1.42;;
43327;SDS011;28923;45.412;10.852;2022-11-20T02:00:47;1.50;;;1.40;;
43327;SDS011;28923;45.412;10.852;2022-11-20T02:03:13;3.30;;;1.60;;
43327;SDS011;28923;45.412;10.852;2022-11-20T02:08:15;1.88;;;1.50;;
43327;SDS011;28923;45.412;10.852;2022-11-20T02:10:40;1.42;;;1.30;;
43327;SDS011;28923;45.412;10.852;2022-11-20T02:13:06;1.60;;;1.25;;
43327;SDS011;28923;45.412;10.852;2022-11-20T02:15:50;1.50;;;1.30;;
43327;SDS011;28923;45.412;10.852;2022-11-20T02:18:16;2.33;;;1.52;;
43327;SDS011;28923;45.412;10.852;2022-11-20T02:20:42;1.42;;;1.33;;
43327;SDS011;28923;45.412;10.852;2022-11-20T02:23:11;1.63;;;1.52;;
43327;SDS011;28923;45.412;10.852;2022-11-20T02:25:37;1.75;;;1.45;;
43327;SDS011;28923;45.412;10.852;2022-11-20T02:28:04;1.30;;;1.20;;
43327;SDS011;28923;45.412;10.852;2022-11-20T02:30:30;1.98;;;1.40;;
43327;SDS011;28923;45.412;10.852;2022-11-20T02:32:57;1.73;;;1.23;;
43327;SDS011;28923;45.412;10.852;2022-11-20T02:37:50;1.55;;;1.20;;
43327;SDS011;28923;45.412;10.852;2022-11-20T02:40:16;1.65;;;1.40;;
43327;SDS011;28923;45.412;10.852;2022-11-20T02:42:41;1.85;;;1.55;;
43327;SDS011;28923;45.412;10.852;2022-11-20T02:45:07;1.50;;;1.30;;
43327;SDS011;28923;45.412;10.852;2022-11-20T02:47:32;2.50;;;1.23;;
43327;SDS011;28923;45.412;10.852;2022-11-20T02:49:58;1.55;;;1.23;;
43327;SDS011;28923;45.412;10.852;2022-11-20T02:52:24;1.83;;;1.30;;
43327;SDS011;28923;45.412;10.852;2022-11-20T02:54:49;1.63;;;1.42;;
43327;SDS011;28923;45.412;10.852;2022-11-20T02:57:15;1.45;;;1.33;;
43327;SDS011;28923;45.412;10.852;2022-11-20T02:59:41;1.85;;;1.40;;
43327;SDS011;28923;45.412;10.852;2022-11-20T03:02:06;1.38;;;1.20;;
43327;SDS011;28923;45.412;10.852;2022-11-20T03:04:32;1.60;;;1.27;;
43327;SDS011;28923;45.412;10.852;2022-11-20T03:06:58;2.35;;;1.30;;
43327;SDS011;28923;45.412;10.852;2022-11-20T03:09:24;1.45;;;1.35;;
43327;SDS011;28923;45.412;10.852;2022-11-20T03:11:49;1.60;;;1.02;;
43327;SDS011;28923;45.412;10.852;2022-11-20T03:14:15;1.20;;;1.10;;
43327;SDS011;28923;45.412;10.852;2022-11-20T03:16:41;1.60;;;1.48;;
43327;SDS011;28923;45.412;10.852;2022-11-20T03:19:06;1.58;;;1.45;;
43327;SDS011;28923;45.412;10.852;2022-11-20T03:21:32;1.42;;;1.20;;
43327;SDS011;28923;45.412;10.852;2022-11-20T03:23:58;2.38;;;1.23;;
43327;SDS011;28923;45.412;10.852;2022-11-20T03:26:24;1.70;;;1.20;;
43327;SDS011;28923;45.412;10.852;2022-11-20T03:28:52;1.80;;;1.30;;
43327;SDS011;28923;45.412;10.852;2022-11-20T03:31:18;2.85;;;1.30;;
43327;SDS011;28923;45.412;10.852;2022-11-20T03:33:44;1.35;;;1.10;;
43327;SDS011;28923;45.412;10.852;2022-11-20T03:36:13;1.77;;;1.30;;
43327;SDS011;28923;45.412;10.852;2022-11-20T03:38:39;1.55;;;1.10;;
43327;SDS011;28923;45.412;10.852;2022-11-20T03:41:09;1.33;;;1.05;;
43327;SDS011;28923;45.412;10.852;2022-11-20T03:43:35;1.25;;;1.00;;
43327;SDS011;28923;45.412;10.852;2022-11-20T03:46:00;1.25;;;1.05;;
43327;SDS011;28923;45.412;10.852;2022-11-20T03:48:26;1.67;;;1.10;;
43327;SDS011;28923;45.412;10.852;2022-11-20T03:50:52;1.00;;;1.00;;
43327;SDS011;28923;45.412;10.852;2022-11-20T03:53:19;1.00;;;1.00;;
43327;SDS011;28923;45.412;10.852;2022-11-20T03:55:45;1.25;;;1.00;;
43327;SDS011;28923;45.412;10.852;2022-11-20T03:58:10;1.55;;;1.00;;
43327;SDS011;28923;45.412;10.852;2022-11-20T04:00:36;1.40;;;1.15;;
43327;SDS011;28923;45.412;10.852;2022-11-20T04:03:02;1.60;;;1.20;;
43327;SDS011;28923;45.412;10.852;2022-11-20T04:05:28;1.05;;;1.00;;
43327;SDS011;28923;45.412;10.852;2022-11-20T04:07:53;1.05;;;0.95;;
43327;SDS011;28923;45.412;10.852;2022-11-20T04:10:19;1.23;;;0.98;;
43327;SDS011;28923;45.412;10.852;2022-11-20T04:12:44;1.50;;;1.00;;
43327;SDS011;28923;45.412;10.852;2022-11-20T04:15:10;1.27;;;1.05;;
43327;SDS011;28923;45.412;10.852;2022-11-20T04:17:36;1.38;;;1.13;;
43327;SDS011;28923;45.412;10.852;2022-11-20T04:20:02;1.05;;;0.95;;
43327;SDS011;28923;45.412;10.852;2022-11-20T04:22:27;1.10;;;1.00;;
43327;SDS011;28923;45.412;10.852;2022-11-20T04:24:52;1.02;;;0.93;;
43327;SDS011;28923;45.412;10.852;2022-11-20T04:27:18;1.38;;;1.27;;
43327;SDS011;28923;45.412;10.852;2022-11-20T04:29:44;1.65;;;0.70;;
43327;SDS011;28923;45.412;10.852;2022-11-20T04:32:09;1.27;;;1.00;;
43327;SDS011;28923;45.412;10.852;2022-11-20T04:34:35;1.83;;;0.98;;
43327;SDS011;28923;45.412;10.852;2022-11-20T04:37:01;1.50;;;1.20;;
43327;SDS011;28923;45.412;10.852;2022-11-20T04:39:26;1.08;;;0.98;;
43327;SDS011;28923;45.412;10.852;2022-11-20T04:41:52;1.25;;;0.90;;
43327;SDS011;28923;45.412;10.852;2022-11-20T04:44:38;1.75;;;1.00;;
43327;SDS011;28923;45.412;10.852;2022-11-20T04:47:03;1.40;;;0.80;;
43327;SDS011;28923;45.412;10.852;2022-11-20T04:49:29;0.82;;;0.80;;
43327;SDS011;28923;45.412;10.852;2022-11-20T04:51:56;1.17;;;1.08;;
43327;SDS011;28923;45.412;10.852;2022-11-20T04:54:22;1.35;;;0.82;;
43327;SDS011;28923;45.412;10.852;2022-11-20T04:56:48;1.23;;;1.00;;
43327;SDS011;28923;45.412;10.852;2022-11-20T04:59:13;1.33;;;1.00;;
43327;SDS011;28923;45.412;10.852;2022-11-20T05:01:39;1.23;;;0.80;;
43327;SDS011;28923;45.412;10.852;2022-11-20T05:04:05;1.77;;;1.10;;
43327;SDS011;28923;45.412;10.852;2022-11-20T05:06:30;1.70;;;1.08;;
43327;SDS011;28923;45.412;10.852;2022-11-20T05:08:56;0.85;;;0.85;;
43327;SDS011;28923;45.412;10.852;2022-11-20T05:11:22;1.73;;;1.10;;
43327;SDS011;28923;45.412;10.852;2022-11-20T05:13:48;1.17;;;1.00;;
43327;SDS011;28923;45.412;10.852;2022-11-20T05:16:15;1.27;;;0.90;;
43327;SDS011;28923;45.412;10.852;2022-11-20T05:18:42;1.70;;;1.20;;
43327;SDS011;28923;45.412;10.852;2022-11-20T05:21:08;0.93;;;0.80;;
43327;SDS011;28923;45.412;10.852;2022-11-20T05:23:34;1.30;;;1.05;;
43327;SDS011;28923;45.412;10.852;2022-11-20T05:26:01;0.98;;;0.88;;
43327;SDS011;28923;45.412;10.852;2022-11-20T05:28:27;1.10;;;1.00;;
43327;SDS011;28923;45.412;10.852;2022-11-20T05:30:53;0.90;;;0.75;;
43327;SDS011;28923;45.412;10.852;2022-11-20T05:33:18;1.20;;;1.10;;
43327;SDS011;28923;45.412;10.852;2022-11-20T05:35:45;1.40;;;0.90;;
43327;SDS011;28923;45.412;10.852;2022-11-20T05:38:10;1.20;;;1.10;;
43327;SDS011;28923;45.412;10.852;2022-11-20T05:40:36;1.45;;;0.80;;
43327;SDS011;28923;45.412;10.852;2022-11-20T05:43:02;2.28;;;1.00;;
43327;SDS011;28923;45.412;10.852;2022-11-20T05:45:27;1.17;;;1.00;;
43327;SDS011;28923;45.412;10.852;2022-11-20T05:47:53;0.88;;;0.73;;
43327;SDS011;28923;45.412;10.852;2022-11-20T05:50:19;3.97;;;1.05;;
43327;SDS011;28923;45.412;10.852;2022-11-20T05:52:44;2.42;;;1.25;;
43327;SDS011;28923;45.412;10.852;2022-11-20T05:55:10;7.25;;;1.40;;
43327;SDS011;28923;45.412;10.852;2022-11-20T05:57:35;2.25;;;1.10;;
43327;SDS011;28923;45.412;10.852;2022-11-20T06:00:02;4.78;;;1.20;;
43327;SDS011;28923;45.412;10.852;2022-11-20T06:02:29;3.08;;;1.33;;
43327;SDS011;28923;45.412;10.852;2022-11-20T06:04:55;2.67;;;1.17;;
43327;SDS011;28923;45.412;10.852;2022-11-20T06:07:20;2.75;;;1.27;;
43327;SDS011;28923;45.412;10.852;2022-11-20T06:09:46;1.63;;;0.98;;
43327;SDS011;28923;45.412;10.852;2022-11-20T06:12:12;5.47;;;1.50;;
43327;SDS011;28923;45.412;10.852;2022-11-20T06:14:37;3.13;;;0.98;;
43327;SDS011;28923;45.412;10.852;2022-11-20T06:17:02;2.55;;;1.23;;
43327;SDS011;28923;45.412;10.852;2022-11-20T06:19:28;1.90;;;1.00;;
43327;SDS011;28923;45.412;10.852;2022-11-20T06:21:53;3.30;;;1.20;;
43327;SDS011;28923;45.412;10.852;2022-11-20T06:24:19;2.28;;;1.00;;
43327;SDS011;28923;45.412;10.852;2022-11-20T06:26:44;3.63;;;1.17;;
43327;SDS011;28923;45.412;10.852;2022-11-20T06:29:10;4.85;;;1.30;;
43327;SDS011;28923;45.412;10.852;2022-11-20T06:31:36;4.45;;;1.20;;
43327;SDS011;28923;45.412;10.852;2022-11-20T06:34:06;4.30;;;1.30;;
43327;SDS011;28923;45.412;10.852;2022-11-20T06:36:32;6.78;;;1.27;;
43327;SDS011;28923;45.412;10.852;2022-11-20T06:38:57;6.75;;;1.55;;
43327;SDS011;28923;45.412;10.852;2022-11-20T06:41:23;2.97;;;1.25;;
43327;SDS011;28923;45.412;10.852;2022-11-20T06:43:49;7.82;;;1.20;;
43327;SDS011;28923;45.412;10.852;2022-11-20T06:46:15;10.85;;;1.67;;
43327;SDS011;28923;45.412;10.852;2022-11-20T06:48:43;6.25;;;1.50;;
43327;SDS011;28923;45.412;10.852;2022-11-20T06:51:08;4.80;;;1.40;;
43327;SDS011;28923;45.412;10.852;2022-11-20T06:53:34;5.32;;;1.60;;
43327;SDS011;28923;45.412;10.852;2022-11-20T06:56:00;9.15;;;1.20;;
43327;SDS011;28923;45.412;10.852;2022-11-20T06:58:26;3.63;;;1.30;;
43327;SDS011;28923;45.412;10.852;2022-11-20T07:00:52;5.60;;;1.20;;
43327;SDS011;28923;45.412;10.852;2022-11-20T07:03:17;6.53;;;1.20;;
43327;SDS011;28923;45.412;10.852;2022-11-20T07:05:43;2.55;;;1.25;;
43327;SDS011;28923;45.412;10.852;2022-11-20T07:08:10;6.78;;;1.42;;
43327;SDS011;28923;45.412;10.852;2022-11-20T07:10:36;5.75;;;1.30;;
43327;SDS011;28923;45.412;10.852;2022-11-20T07:13:02;3.58;;;1.10;;
43327;SDS011;28923;45.412;10.852;2022-11-20T07:15:28;7.32;;;1.20;;
43327;SDS011;28923;45.412;10.852;2022-11-20T07:17:53;4.38;;;1.05;;
43327;SDS011;28923;45.412;10.852;2022-11-20T07:20:19;5.82;;;1.38;;
43327;SDS011;28923;45.412;10.852;2022-11-20T07:22:45;2.53;;;1.00;;
43327;SDS011;28923;45.412;10.852;2022-11-20T07:25:10;5.22;;;1.10;;
43327;SDS011;28923;45.412;10.852;2022-11-20T07:27:36;2.38;;;1.27;;
43327;SDS011;28923;45.412;10.852;2022-11-20T07:30:02;2.70;;;0.93;;
43327;SDS011;28923;45.412;10.852;2022-11-20T07:32:28;6.55;;;1.15;;
43327;SDS011;28923;45.412;10.852;2022-11-20T07:34:54;2.83;;;1.17;;
43327;SDS011;28923;45.412;10.852;2022-11-20T07:37:19;3.10;;;1.10;;
43327;SDS011;28923;45.412;10.852;2022-11-20T07:39:45;5.75;;;1.10;;
43327;SDS011;28923;45.412;10.852;2022-11-20T07:42:11;1.90;;;1.02;;
43327;SDS011;28923;45.412;10.852;2022-11-20T07:44:40;4.13;;;1.25;;
43327;SDS011;28923;45.412;10.852;2022-11-20T07:47:06;2.03;;;1.10;;
43327;SDS011;28923;45.412;10.852;2022-11-20T07:49:31;2.03;;;1.00;;
43327;SDS011;28923;45.412;10.852;2022-11-20T07:51:57;2.38;;;1.08;;
43327;SDS011;28923;45.412;10.852;2022-11-20T07:54:23;2.78;;;1.00;;
43327;SDS011;28923;45.412;10.852;2022-11-20T07:56:49;2.15;;;0.93;;
43327;SDS011;28923;45.412;10.852;2022-11-20T07:59:14;1.88;;;0.75;;
43327;SDS011;28923;45.412;10.852;2022-11-20T08:01:41;2.95;;;0.90;;
43327;SDS011;28923;45.412;10.852;2022-11-20T08:04:08;1.58;;;1.10;;
43327;SDS011;28923;45.412;10.852;2022-11-20T08:06:34;3.88;;;1.17;;
43327;SDS011;28923;45.412;10.852;2022-11-20T08:08:59;2.03;;;1.00;;
43327;SDS011;28923;45.412;10.852;2022-11-20T08:11:24;2.38;;;1.05;;
43327;SDS011;28923;45.412;10.852;2022-11-20T08:14:09;1.58;;;0.98;;
43327;SDS011;28923;45.412;10.852;2022-11-20T08:16:38;2.10;;;0.90;;
43327;SDS011;28923;45.412;10.852;2022-11-20T08:19:03;2.55;;;0.90;;
43327;SDS011;28923;45.412;10.852;2022-11-20T08:21:32;3.33;;;0.90;;
43327;SDS011;28923;45.412;10.852;2022-11-20T08:23:58;2.20;;;1.08;;
43327;SDS011;28923;45.412;10.852;2022-11-20T08:26:24;2.30;;;0.70;;
43327;SDS011;28923;45.412;10.852;2022-11-20T08:28:57;1.10;;;0.82;;
43327;SDS011;28923;45.412;10.852;2022-11-20T08:31:23;2.10;;;1.05;;
43327;SDS011;28923;45.412;10.852;2022-11-20T08:33:49;2.33;;;0.90;;
43327;SDS011;28923;45.412;10.852;2022-11-20T08:36:16;1.40;;;0.80;;
43327;SDS011;28923;45.412;10.852;2022-11-20T08:38:41;1.65;;;0.80;;
43327;SDS011;28923;45.412;10.852;2022-11-20T08:41:07;1.20;;;0.82;;
43327;SDS011;28923;45.412;10.852;2022-11-20T08:44:05;1.33;;;0.70;;
43327;SDS011;28923;45.412;10.852;2022-11-20T08:46:36;1.58;;;0.80;;
43327;SDS011;28923;45.412;10.852;2022-11-20T08:49:06;4.43;;;0.90;;
43327;SDS011;28923;45.412;10.852;2022-11-20T08:51:32;2.00;;;1.05;;
43327;SDS011;28923;45.412;10.852;2022-11-20T08:53:57;1.98;;;0.80;;
43327;SDS011;28923;45.412;10.852;2022-11-20T08:56:23;1.27;;;0.90;;
43327;SDS011;28923;45.412;10.852;2022-11-20T08:58:49;3.05;;;0.90;;
43327;SDS011;28923;45.412;10.852;2022-11-20T09:01:15;1.13;;;0.85;;
43327;SDS011;28923;45.412;10.852;2022-11-20T09:03:41;1.08;;;0.98;;
43327;SDS011;28923;45.412;10.852;2022-11-20T09:06:07;1.77;;;1.08;;
43327;SDS011;28923;45.412;10.852;2022-11-20T09:08:33;2.75;;;1.10;;
43327;SDS011;28923;45.412;10.852;2022-11-20T09:10:59;2.97;;;1.08;;
43327;SDS011;28923;45.412;10.852;2022-11-20T09:13:25;1.58;;;1.10;;
43327;SDS011;28923;45.412;10.852;2022-11-20T09:15:54;1.48;;;1.00;;
43327;SDS011;28923;45.412;10.852;2022-11-20T09:18:20;2.60;;;1.05;;
43327;SDS011;28923;45.412;10.852;2022-11-20T09:20:46;1.17;;;0.88;;
43327;SDS011;28923;45.412;10.852;2022-11-20T09:23:12;1.67;;;1.20;;
43327;SDS011;28923;45.412;10.852;2022-11-20T09:25:37;1.83;;;1.20;;
43327;SDS011;28923;45.412;10.852;2022-11-20T09:28:03;2.03;;;1.10;;
43327;SDS011;28923;45.412;10.852;2022-11-20T09:30:30;2.75;;;1.02;;
43327;SDS011;28923;45.412;10.852;2022-11-20T09:32:56;0.98;;;0.90;;
43327;SDS011;28923;45.412;10.852;2022-11-20T09:35:22;2.03;;;1.00;;
43327;SDS011;28923;45.412;10.852;2022-11-20T09:37:47;1.20;;;1.10;;
43327;SDS011;28923;45.412;10.852;2022-11-20T09:40:21;1.48;;;1.17;;
43327;SDS011;28923;45.412;10.852;2022-11-20T09:42:54;1.40;;;0.93;;
43327;SDS011;28923;45.412;10.852;2022-11-20T09:50:45;1.13;;;1.02;;
43327;SDS011;28923;45.412;10.852;2022-11-20T09:53:20;2.35;;;1.10;;
43327;SDS011;28923;45.412;10.852;2022-11-20T09:55:48;1.17;;;0.90;;
43327;SDS011;28923;45.412;10.852;2022-11-20T09:58:16;1.58;;;1.33;;
43327;SDS011;28923;45.412;10.852;2022-11-20T10:00:47;1.15;;;1.00;;
43327;SDS011;28923;45.412;10.852;2022-11-20T10:05:57;1.48;;;0.90;;
43327;SDS011;28923;45.412;10.852;2022-11-20T10:08:28;1.08;;;0.90;;
43327;SDS011;28923;45.412;10.852;2022-11-20T10:16:21;1.33;;;1.00;;
43327;SDS011;28923;45.412;10.852;2022-11-20T10:21:35;1.17;;;0.93;;
43327;SDS011;28923;45.412;10.852;2022-11-20T10:31:34;1.10;;;1.00;;
43327;SDS011;28923;45.412;10.852;2022-11-20T10:36:44;1.95;;;1.23;;
43327;SDS011;28923;45.412;10.852;2022-11-20T10:39:33;1.02;;;0.93;;
43327;SDS011;28923;45.412;10.852;2022-11-20T10:42:00;1.55;;;1.23;;
43327;SDS011;28923;45.412;10.852;2022-11-20T10:44:26;1.33;;;0.80;;
43327;SDS011;28923;45.412;10.852;2022-11-20T10:47:14;0.85;;;0.73;;
43327;SDS011;28923;45.412;10.852;2022-11-20T10:49:41;0.80;;;0.77;;
43327;SDS011;28923;45.412;10.852;2022-11-20T11:00:04;0.77;;;0.70;;
43327;SDS011;28923;45.412;10.852;2022-11-20T11:02:47;0.90;;;0.90;;
43327;SDS011;28923;45.412;10.852;2022-11-20T11:05:35;0.85;;;0.85;;
43327;SDS011;28923;45.412;10.852;2022-11-20T11:08:02;1.13;;;0.82;;
43327;SDS011;28923;45.412;10.852;2022-11-20T11:12:58;0.90;;;0.80;;
43327;SDS011;28923;45.412;10.852;2022-11-20T11:15:28;1.13;;;0.68;;
43327;SDS011;28923;45.412;10.852;2022-11-20T11:17:54;0.90;;;0.75;;
43327;SDS011;28923;45.412;10.852;2022-11-20T11:20:21;1.13;;;0.90;;
43327;SDS011;28923;45.412;10.852;2022-11-20T11:22:48;1.30;;;0.68;;
43327;SDS011;28923;45.412;10.852;2022-11-20T11:25:24;1.08;;;0.75;;
43327;SDS011;28923;45.412;10.852;2022-11-20T11:27:51;1.00;;;0.90;;
43327;SDS011;28923;45.412;10.852;2022-11-20T11:30:19;1.10;;;0.68;;
43327;SDS011;28923;45.412;10.852;2022-11-20T11:32:45;0.60;;;0.60;;
43327;SDS011;28923;45.412;10.852;2022-11-20T11:35:26;1.00;;;0.77;;
43327;SDS011;28923;45.412;10.852;2022-11-20T11:37:53;1.65;;;0.95;;
43327;SDS011;28923;45.412;10.852;2022-11-20T11:40:20;0.80;;;0.80;;
43327;SDS011;28923;45.412;10.852;2022-11-20T11:42:54;0.95;;;0.77;;
43327;SDS011;28923;45.412;10.852;2022-11-20T11:45:21;0.70;;;0.70;;
43327;SDS011;28923;45.412;10.852;2022-11-20T11:47:48;1.02;;;0.93;;
43327;SDS011;28923;45.412;10.852;2022-11-20T11:50:19;1.60;;;1.13;;
43327;SDS011;28923;45.412;10.852;2022-11-20T11:58:04;0.63;;;0.63;;
43327;SDS011;28923;45.412;10.852;2022-11-20T12:00:32;0.70;;;0.70;;
43327;SDS011;28923;45.412;10.852;2022-11-20T12:05:26;1.10;;;0.85;;
43327;SDS011;28923;45.412;10.852;2022-11-20T12:07:55;1.13;;;0.90;;
43327;SDS011;28923;45.412;10.852;2022-11-20T12:13:04;1.25;;;1.10;;
43327;SDS011;28923;45.412;10.852;2022-11-20T12:15:35;1.50;;;1.25;;
43327;SDS011;28923;45.412;10.852;2022-11-20T12:18:01;1.55;;;0.90;;
43327;SDS011;28923;45.412;10.852;2022-11-20T12:20:33;1.33;;;1.23;;
43327;SDS011;28923;45.412;10.852;2022-11-20T12:23:09;1.42;;;1.25;;
43327;SDS011;28923;45.412;10.852;2022-11-20T12:25:40;1.33;;;1.20;;
43327;SDS011;28923;45.412;10.852;2022-11-20T12:30:54;2.10;;;1.50;;
43327;SDS011;28923;45.412;10.852;2022-11-20T12:41:21;2.22;;;1.40;;
43327;SDS011;28923;45.412;10.852;2022-11-20T12:47:39;2.10;;;1.58;;
43327;SDS011;28923;45.412;10.852;2022-11-20T12:50:14;1.60;;;1.50;;
43327;SDS011;28923;45.412;10.852;2022-11-20T12:55:11;2.10;;;1.80;;
43327;SDS011;28923;45.412;10.852;2022-11-20T12:57:58;5.72;;;1.90;;
43327;SDS011;28923;45.412;10.852;2022-11-20T13:00:28;4.35;;;1.52;;
43327;SDS011;28923;45.412;10.852;2022-11-20T13:05:43;4.22;;;2.00;;
43327;SDS011;28923;45.412;10.852;2022-11-20T13:16:33;6.38;;;1.98;;
43327;SDS011;28923;45.412;10.852;2022-11-20T13:19:03;2.80;;;1.63;;
43327;SDS011;28923;45.412;10.852;2022-11-20T13:24:04;4.90;;;1.98;;
43327;SDS011;28923;45.412;10.852;2022-11-20T13:26:30;5.75;;;1.80;;
43327;SDS011;28923;45.412;10.852;2022-11-20T13:29:04;4.95;;;2.00;;
43327;SDS011;28923;45.412;10.852;2022-11-20T13:31:34;3.45;;;2.00;;
43327;SDS011;28923;45.412;10.852;2022-11-20T13:34:01;3.65;;;2.03;;
43327;SDS011;28923;45.412;10.852;2022-11-20T13:36:28;3.58;;;2.05;;
43327;SDS011;28923;45.412;10.852;2022-11-20T13:38:55;5.13;;;2.10;;
43327;SDS011;28923;45.412;10.852;2022-11-20T13:41:34;1.95;;;1.75;;
43327;SDS011;28923;45.412;10.852;2022-11-20T13:46:38;5.70;;;2.10;;
43327;SDS011;28923;45.412;10.852;2022-11-20T13:49:15;5.35;;;1.83;;
43327;SDS011;28923;45.412;10.852;2022-11-20T13:56:48;3.47;;;2.45;;
43327;SDS011;28923;45.412;10.852;2022-11-20T14:01:41;5.75;;;2.13;;
43327;SDS011;28923;45.412;10.852;2022-11-20T14:04:09;5.70;;;1.90;;
43327;SDS011;28923;45.412;10.852;2022-11-20T14:06:43;3.78;;;1.92;;
43327;SDS011;28923;45.412;10.852;2022-11-20T14:09:12;3.53;;;1.90;;
43327;SDS011;28923;45.412;10.852;2022-11-20T14:11:45;4.57;;;2.45;;
43327;SDS011;28923;45.412;10.852;2022-11-20T14:14:21;4.45;;;2.33;;
43327;SDS011;28923;45.412;10.852;2022-11-20T14:16:47;3.72;;;2.40;;
43327;SDS011;28923;45.412;10.852;2022-11-20T14:21:49;3.03;;;2.05;;
43327;SDS011;28923;45.412;10.852;2022-11-20T14:24:19;3.80;;;2.17;;
43327;SDS011;28923;45.412;10.852;2022-11-20T14:26:45;3.05;;;2.45;;
43327;SDS011;28923;45.412;10.852;2022-11-20T14:29:14;5.78;;;2.60;;
43327;SDS011;28923;45.412;10.852;2022-11-20T14:31:42;3.80;;;1.85;;
43327;SDS011;28923;45.412;10.852;2022-11-20T14:34:15;2.35;;;2.00;;
43327;SDS011;28923;45.412;10.852;2022-11-20T14:39:08;3.13;;;2.17;;
43327;SDS011;28923;45.412;10.852;2022-11-20T14:41:36;3.95;;;2.45;;
43327;SDS011;28923;45.412;10.852;2022-11-20T14:44:01;3.40;;;2.40;;
43327;SDS011;28923;45.412;10.852;2022-11-20T14:46:28;4.38;;;2.63;;
43327;SDS011;28923;45.412;10.852;2022-11-20T14:48:55;6.78;;;2.15;;
43327;SDS011;28923;45.412;10.852;2022-11-20T14:54:16;5.80;;;2.70;;
43327;SDS011;28923;45.412;10.852;2022-11-20T14:56:42;3.53;;;2.40;;
43327;SDS011;28923;45.412;10.852;2022-11-20T14:59:22;4.55;;;2.28;;
43327;SDS011;28923;45.412;10.852;2022-11-20T15:01:58;3.70;;;2.53;;
43327;SDS011;28923;45.412;10.852;2022-11-20T15:04:24;4.55;;;2.63;;
43327;SDS011;28923;45.412;10.852;2022-11-20T15:06:51;3.20;;;2.88;;
43327;SDS011;28923;45.412;10.852;2022-11-20T15:09:18;3.17;;;2.35;;
43327;SDS011;28923;45.412;10.852;2022-11-20T15:11:59;3.38;;;2.60;;
43327;SDS011;28923;45.412;10.852;2022-11-20T15:14:26;3.70;;;2.58;;
43327;SDS011;28923;45.412;10.852;2022-11-20T15:16:53;4.00;;;3.10;;
43327;SDS011;28923;45.412;10.852;2022-11-20T15:19:22;2.92;;;2.47;;
43327;SDS011;28923;45.412;10.852;2022-11-20T15:21:48;3.80;;;2.70;;
43327;SDS011;28923;45.412;10.852;2022-11-20T15:24:14;3.28;;;2.70;;
43327;SDS011;28923;45.412;10.852;2022-11-20T15:26:41;5.60;;;3.13;;
43327;SDS011;28923;45.412;10.852;2022-11-20T15:29:10;4.43;;;3.20;;
43327;SDS011;28923;45.412;10.852;2022-11-20T15:31:37;2.83;;;2.58;;
43327;SDS011;28923;45.412;10.852;2022-11-20T15:34:03;5.22;;;3.10;;
43327;SDS011;28923;45.412;10.852;2022-11-20T15:36:30;4.53;;;2.72;;
43327;SDS011;28923;45.412;10.852;2022-11-20T15:38:55;3.58;;;2.72;;
43327;SDS011;28923;45.412;10.852;2022-11-20T15:41:21;4.53;;;2.95;;
43327;SDS011;28923;45.412;10.852;2022-11-20T15:43:47;4.10;;;3.13;;
43327;SDS011;28923;45.412;10.852;2022-11-20T15:46:15;3.90;;;2.83;;
43327;SDS011;28923;45.412;10.852;2022-11-20T15:48:42;3.83;;;3.42;;
43327;SDS011;28923;45.412;10.852;2022-11-20T15:53:35;3.55;;;2.70;;
43327;SDS011;28923;45.412;10.852;2022-11-20T15:56:01;5.07;;;3.17;;
43327;SDS011;28923;45.412;10.852;2022-11-20T15:58:27;6.43;;;3.00;;
43327;SDS011;28923;45.412;10.852;2022-11-20T16:00:53;3.88;;;3.10;;
43327;SDS011;28923;45.412;10.852;2022-11-20T16:03:19;5.80;;;3.65;;
43327;SDS011;28923;45.412;10.852;2022-11-20T16:05:45;6.10;;;4.05;;
43327;SDS011;28923;45.412;10.852;2022-11-20T16:08:11;7.22;;;4.43;;
43327;SDS011;28923;45.412;10.852;2022-11-20T16:10:37;8.63;;;4.65;;
43327;SDS011;28923;45.412;10.852;2022-11-20T16:13:02;7.35;;;4.97;;
43327;SDS011;28923;45.412;10.852;2022-11-20T16:15:50;7.75;;;4.50;;
43327;SDS011;28923;45.412;10.852;2022-11-20T16:18:18;6.30;;;4.72;;
43327;SDS011;28923;45.412;10.852;2022-11-20T16:20:48;5.82;;;4.55;;